Time;durP1;ratioP1;P1;durP2;ratioP2;P2;SDS_P1;SDS_P2;PMS_P1;PMS_P2;Temp;Humidity;BMP_temperature;BMP_pressure;BME280_temperature;BME280_humidity;BME280_pressure;Samples;Min_cycle;Max_cycle;Signal;HPM_P1;HPM_P2
2021/06/19 00:00:51;;;;;;;15.07;8.38;;;;;;;20.65;100.00;96131.28;5038182;28;20197;-74
2021/06/19 00:03:18;;;;;;;15.82;8.55;;;;;;;20.66;100.00;96127.53;5037508;28;20202;-74
2021/06/19 00:05:44;;;;;;;19.10;9.70;;;;;;;20.70;100.00;96129.50;5037663;28;20243;-74
2021/06/19 00:08:13;;;;;;;13.65;9.30;;;;;;;20.79;100.00;96121.91;5037810;28;21296;-74
2021/06/19 00:10:40;;;;;;;16.63;8.95;;;;;;;20.73;100.00;96131.72;5037382;28;20231;-74
2021/06/19 00:13:06;;;;;;;12.88;9.20;;;;;;;20.70;100.00;96131.38;5037729;28;20205;-74
2021/06/19 00:15:33;;;;;;;13.43;8.48;;;;;;;20.65;100.00;96137.44;5037793;28;20251;-74
2021/06/19 00:17:59;;;;;;;16.17;9.38;;;;;;;20.67;100.00;96131.84;5037638;28;20214;-74
2021/06/19 00:20:27;;;;;;;16.63;9.43;;;;;;;20.61;100.00;96130.09;5037697;28;20209;-74
2021/06/19 00:22:55;;;;;;;20.65;9.48;;;;;;;20.66;100.00;96140.91;5038308;28;20208;-74
2021/06/19 00:25:25;;;;;;;18.63;8.57;;;;;;;20.55;100.00;96136.44;5037085;28;20232;-74
2021/06/19 00:27:52;;;;;;;13.63;8.80;;;;;;;20.52;100.00;96131.56;5038045;28;20205;-74
2021/06/19 00:30:20;;;;;;;13.93;8.60;;;;;;;20.44;100.00;96135.47;5037592;28;20208;-74
2021/06/19 00:32:47;;;;;;;17.92;8.68;;;;;;;20.27;100.00;96134.59;5037062;28;20308;-74
2021/06/19 00:35:14;;;;;;;14.52;8.70;;;;;;;20.13;100.00;96127.09;5036936;28;20232;-73
2021/06/19 00:37:41;;;;;;;14.55;8.30;;;;;;;20.11;100.00;96123.84;5037476;28;20208;-74
2021/06/19 00:40:10;;;;;;;14.02;9.00;;;;;;;20.21;100.00;96124.03;5037370;28;20205;-74
2021/06/19 00:42:38;;;;;;;11.27;8.05;;;;;;;20.22;100.00;96145.19;5036677;28;20208;-74
2021/06/19 00:45:06;;;;;;;13.10;7.95;;;;;;;20.15;100.00;96151.75;5036873;28;20220;-74
2021/06/19 00:47:33;;;;;;;14.25;8.65;;;;;;;20.27;100.00;96155.19;5037724;28;20205;-74
2021/06/19 00:49:59;;;;;;;11.82;8.02;;;;;;;20.40;100.00;96146.88;5037125;28;20203;-74
2021/06/19 00:52:26;;;;;;;15.68;7.82;;;;;;;20.38;100.00;96146.31;5037355;28;20240;-74
2021/06/19 00:54:52;;;;;;;21.77;8.35;;;;;;;20.32;100.00;96152.63;5037365;28;20225;-74
2021/06/19 00:57:19;;;;;;;18.38;7.90;;;;;;;20.36;100.00;96156.44;5035933;28;20216;-74
2021/06/19 00:59:47;;;;;;;21.25;8.40;;;;;;;20.38;100.00;96159.69;5035001;28;20201;-74
2021/06/19 01:02:14;;;;;;;15.68;7.57;;;;;;;20.38;100.00;96157.03;5037244;28;20209;-74
2021/06/19 01:04:41;;;;;;;37.55;8.40;;;;;;;20.42;100.00;96158.16;5036703;28;21090;-74
2021/06/19 01:07:07;;;;;;;28.17;8.50;;;;;;;20.32;100.00;96155.28;5036434;28;20585;-74
2021/06/19 01:09:34;;;;;;;30.48;8.10;;;;;;;20.26;100.00;96161.59;5037481;28;20197;-74
2021/06/19 01:12:01;;;;;;;28.77;7.70;;;;;;;20.28;100.00;96168.31;5036041;28;20342;-74
2021/06/19 01:14:27;;;;;;;34.00;9.30;;;;;;;20.23;100.00;96173.56;5036795;28;20233;-74
2021/06/19 01:16:55;;;;;;;37.63;9.45;;;;;;;20.21;100.00;96169.50;5036336;28;20207;-74
2021/06/19 01:19:22;;;;;;;27.70;7.75;;;;;;;20.20;100.00;96165.22;5035750;28;20197;-74
2021/06/19 01:21:53;;;;;;;24.17;8.32;;;;;;;20.26;100.00;96177.63;5036717;28;20204;-74
2021/06/19 01:24:21;;;;;;;22.88;8.43;;;;;;;20.30;100.00;96171.59;5036524;28;20221;-74
2021/06/19 01:26:50;;;;;;;17.50;8.13;;;;;;;20.28;100.00;96170.19;5036497;28;20675;-74
2021/06/19 01:29:17;;;;;;;20.08;8.68;;;;;;;20.22;100.00;96173.81;5036774;28;20216;-74
2021/06/19 01:31:43;;;;;;;15.02;8.35;;;;;;;20.34;100.00;96177.25;5036712;28;20224;-74
2021/06/19 01:34:10;;;;;;;22.80;8.10;;;;;;;20.35;100.00;96178.88;5036604;28;20212;-74
2021/06/19 01:36:36;;;;;;;27.58;8.55;;;;;;;20.39;100.00;96180.03;5036230;28;20216;-74
2021/06/19 01:39:04;;;;;;;23.02;9.00;;;;;;;20.35;100.00;96184.25;5036688;28;20323;-74
2021/06/19 01:41:32;;;;;;;23.75;9.95;;;;;;;20.33;100.00;96186.38;5036839;28;20201;-74
2021/06/19 01:44:01;;;;;;;22.85;8.93;;;;;;;20.36;100.00;96181.31;5036609;28;20205;-74
2021/06/19 01:46:28;;;;;;;15.38;8.55;;;;;;;20.32;100.00;96184.72;5035837;28;20228;-74
2021/06/19 01:48:55;;;;;;;19.55;8.45;;;;;;;20.30;100.00;96178.78;5036335;28;20209;-74
2021/06/19 01:51:22;;;;;;;19.67;8.63;;;;;;;20.32;100.00;96174.03;5039301;28;20718;-74
2021/06/19 01:53:48;;;;;;;19.33;7.70;;;;;;;20.37;100.00;96177.59;5040399;28;20193;-74
2021/06/19 01:56:16;;;;;;;22.38;8.63;;;;;;;20.42;100.00;96176.91;5039741;28;20329;-74
2021/06/19 01:58:42;;;;;;;20.42;8.20;;;;;;;20.39;100.00;96180.03;5035944;28;20205;-74
2021/06/19 02:01:12;;;;;;;20.60;8.55;;;;;;;20.43;100.00;96170.47;5040296;28;20205;-74
2021/06/19 02:03:39;;;;;;;25.70;8.30;;;;;;;20.32;100.00;96166.78;5040755;28;20205;-74
2021/06/19 02:06:06;;;;;;;20.92;8.55;;;;;;;20.33;100.00;96170.31;5039476;28;20235;-74
2021/06/19 02:08:33;;;;;;;19.88;8.48;;;;;;;20.27;100.00;96160.53;5040046;28;20263;-74
2021/06/19 02:11:00;;;;;;;14.05;8.50;;;;;;;20.35;100.00;96176.22;5040255;28;20197;-74
2021/06/19 02:13:27;;;;;;;18.67;8.68;;;;;;;20.34;100.00;96180.75;5040598;28;20201;-74
2021/06/19 02:15:55;;;;;;;17.98;9.00;;;;;;;20.27;100.00;96181.94;5038972;28;20233;-74
2021/06/19 02:18:23;;;;;;;14.23;8.30;;;;;;;20.23;100.00;96175.44;5040120;28;20205;-74
2021/06/19 02:20:53;;;;;;;15.93;8.88;;;;;;;20.16;100.00;96174.75;5040909;28;20201;-74
2021/06/19 02:23:20;;;;;;;26.40;8.20;;;;;;;20.12;100.00;96178.16;5040055;28;20193;-74
2021/06/19 02:25:51;;;;;;;15.35;9.02;;;;;;;20.11;100.00;96172.00;5039263;28;20221;-74
2021/06/19 02:28:19;;;;;;;14.93;8.70;;;;;;;20.17;100.00;96167.56;5040776;28;20209;-74
2021/06/19 02:30:48;;;;;;;21.40;8.63;;;;;;;20.24;100.00;96166.38;5039875;28;20204;-74
2021/06/19 02:33:15;;;;;;;20.70;8.27;;;;;;;20.16;100.00;96164.06;5039370;28;20225;-74
2021/06/19 02:35:45;;;;;;;18.60;7.95;;;;;;;20.12;100.00;96167.47;5039451;28;20224;-74
2021/06/19 02:38:12;;;;;;;19.33;7.82;;;;;;;20.13;100.00;96167.22;5040017;28;20644;-74
2021/06/19 02:40:39;;;;;;;16.58;8.52;;;;;;;20.08;100.00;96159.09;5039833;28;20210;-74
2021/06/19 02:43:06;;;;;;;16.73;8.23;;;;;;;19.95;100.00;96154.00;5039789;28;20208;-74
2021/06/19 02:45:33;;;;;;;22.73;9.18;;;;;;;19.94;100.00;96144.34;5038712;28;20229;-74
2021/06/19 02:48:01;;;;;;;18.83;8.63;;;;;;;19.96;100.00;96155.63;5039578;28;20232;-74
2021/06/19 02:50:29;;;;;;;25.02;9.02;;;;;;;19.97;100.00;96154.59;5039553;28;20216;-74
2021/06/19 02:53:00;;;;;;;19.58;9.85;;;;;;;19.90;100.00;96169.13;5039484;28;20220;-74
2021/06/19 02:55:29;;;;;;;15.85;9.40;;;;;;;19.89;100.00;96167.47;5035799;28;20991;-74
2021/06/19 02:57:55;;;;;;;15.43;8.65;;;;;;;19.85;100.00;96167.13;5035776;28;20228;-74
2021/06/19 03:00:23;;;;;;;14.98;8.50;;;;;;;19.82;100.00;96169.47;5039283;28;20212;-74
2021/06/19 03:02:50;;;;;;;17.48;9.45;;;;;;;19.80;100.00;96168.91;5037920;28;20243;-74
2021/06/19 03:05:18;;;;;;;20.48;10.05;;;;;;;19.82;100.00;96174.84;5038726;28;20225;-74
2021/06/19 03:07:46;;;;;;;15.52;9.45;;;;;;;19.83;100.00;96179.09;5039700;28;20213;-74
2021/06/19 03:10:16;;;;;;;22.88;10.43;;;;;;;19.84;100.00;96184.22;5039533;28;20228;-74
2021/06/19 03:12:43;;;;;;;16.25;10.48;;;;;;;19.92;100.00;96178.56;5039314;28;20221;-74
2021/06/19 03:15:11;;;;;;;18.10;10.85;;;;;;;19.92;100.00;96183.91;5038553;28;20247;-74
2021/06/19 03:17:38;;;;;;;20.55;10.15;;;;;;;19.99;100.00;96179.22;5038543;28;20197;-74
2021/06/19 03:20:06;;;;;;;19.85;11.10;;;;;;;20.06;100.00;96179.94;5039584;28;20228;-74
2021/06/19 03:22:41;;;;;;;21.38;10.77;;;;;;;20.07;100.00;96184.22;5039748;28;20225;-74
2021/06/19 03:25:09;;;;;;;16.58;10.90;;;;;;;20.06;100.00;96185.28;5038048;28;20235;-74
2021/06/19 03:27:36;;;;;;;18.20;11.15;;;;;;;20.06;100.00;96193.31;5038556;28;20891;-74
2021/06/19 03:30:04;;;;;;;17.23;10.82;;;;;;;20.03;100.00;96191.09;5039654;28;20232;-74
2021/06/19 03:32:30;;;;;;;17.55;11.20;;;;;;;20.09;100.00;96194.69;5039161;28;20229;-74
2021/06/19 03:34:57;;;;;;;18.95;10.50;;;;;;;20.06;100.00;96195.16;5038725;28;20220;-74
2021/06/19 03:37:23;;;;;;;18.17;10.18;;;;;;;20.07;100.00;96191.44;5038406;28;20737;-74
2021/06/19 03:39:50;;;;;;;16.98;10.82;;;;;;;20.04;100.00;96198.06;5039611;28;20205;-74
2021/06/19 03:42:16;;;;;;;19.20;11.48;;;;;;;19.97;100.00;96192.03;5038539;28;20208;-74
2021/06/19 03:44:44;;;;;;;16.63;10.77;;;;;;;20.01;100.00;96197.72;5038691;28;20217;-74
2021/06/19 03:47:11;;;;;;;17.75;10.40;;;;;;;20.03;100.00;96203.66;5039098;28;20209;-74
2021/06/19 03:49:37;;;;;;;15.95;10.93;;;;;;;20.03;100.00;96206.34;5038681;28;20205;-74
2021/06/19 03:52:04;;;;;;;19.08;11.38;;;;;;;19.93;100.00;96206.91;5038869;28;20236;-74
2021/06/19 03:54:30;;;;;;;19.73;10.93;;;;;;;19.90;100.00;96212.72;5039183;28;20224;-74
2021/06/19 03:56:57;;;;;;;19.67;11.27;;;;;;;19.93;100.00;96212.25;5037904;28;20205;-74
2021/06/19 03:59:23;;;;;;;24.23;11.50;;;;;;;20.03;100.00;96220.50;5035857;28;20212;-74
2021/06/19 04:01:51;;;;;;;22.02;11.15;;;;;;;19.92;100.00;96221.34;5039081;28;20197;-74
2021/06/19 04:04:18;;;;;;;19.48;11.07;;;;;;;20.03;100.00;96231.22;5038613;28;20208;-74
2021/06/19 04:06:44;;;;;;;22.17;11.15;;;;;;;20.04;100.00;96232.84;5037694;28;20667;-74
2021/06/19 04:09:10;;;;;;;21.55;11.30;;;;;;;20.12;100.00;96232.47;5038639;28;20599;-74
2021/06/19 04:11:37;;;;;;;21.48;11.10;;;;;;;20.13;100.00;96235.97;5038716;28;20843;-74
2021/06/19 04:14:03;;;;;;;14.80;10.52;;;;;;;20.12;100.00;96232.47;5036390;28;20556;-71
2021/06/19 04:16:30;;;;;;;19.70;10.93;;;;;;;20.14;100.00;96243.78;5036473;28;20201;-71
2021/06/19 04:18:58;;;;;;;17.67;10.20;;;;;;;20.18;100.00;96247.59;5037935;28;20209;-71
2021/06/19 04:21:24;;;;;;;15.45;9.98;;;;;;;20.24;100.00;96239.44;5037631;28;20205;-71
2021/06/19 04:23:51;;;;;;;16.83;10.68;;;;;;;20.33;100.00;96246.03;5036970;28;20200;-71
2021/06/19 04:26:19;;;;;;;19.08;11.25;;;;;;;20.40;100.00;96251.25;5036524;28;20236;-71
2021/06/19 04:28:46;;;;;;;17.90;10.98;;;;;;;20.43;100.00;96251.63;5037239;28;20201;-71
2021/06/19 04:31:12;;;;;;;16.02;10.50;;;;;;;20.52;100.00;96254.72;5037434;28;20205;-71
2021/06/19 04:33:39;;;;;;;24.27;11.75;;;;;;;20.57;100.00;96257.50;5037242;28;20221;-71
2021/06/19 04:36:08;;;;;;;20.67;10.02;;;;;;;20.59;100.00;96256.19;5037086;28;20260;-71
2021/06/19 04:38:34;;;;;;;16.42;10.43;;;;;;;20.70;100.00;96259.91;5037300;28;20606;-71
2021/06/19 04:41:03;;;;;;;17.20;10.75;;;;;;;20.79;100.00;96259.31;5036819;28;20212;-71
2021/06/19 04:43:32;;;;;;;19.55;11.00;;;;;;;20.90;100.00;96269.97;5037128;28;20259;-71
2021/06/19 04:45:59;;;;;;;19.48;10.40;;;;;;;20.95;100.00;96267.41;5035872;28;20217;-71
2021/06/19 04:48:25;;;;;;;17.83;10.32;;;;;;;21.04;100.00;96271.31;5037006;28;20876;-71
2021/06/19 04:50:52;;;;;;;18.15;10.85;;;;;;;21.10;100.00;96281.06;5037799;28;20204;-71
2021/06/19 04:53:21;;;;;;;16.85;10.45;;;;;;;21.22;100.00;96279.16;5036223;28;20352;-71
2021/06/19 04:55:47;;;;;;;17.75;10.80;;;;;;;21.36;100.00;96274.28;5035779;28;20225;-71
2021/06/19 04:58:14;;;;;;;23.77;11.02;;;;;;;21.44;100.00;96283.53;5034874;28;20215;-71
2021/06/19 05:00:40;;;;;;;17.20;10.57;;;;;;;21.56;100.00;96284.34;5036870;28;20197;-71
2021/06/19 05:03:07;;;;;;;13.98;9.98;;;;;;;21.71;100.00;96294.47;5036748;28;20205;-71
2021/06/19 05:05:34;;;;;;;20.48;11.13;;;;;;;21.80;100.00;96303.75;5032807;28;20221;-71
2021/06/19 05:08:01;;;;;;;18.83;10.52;;;;;;;21.84;98.37;96294.16;5036188;28;20304;-71
2021/06/19 05:10:29;;;;;;;20.15;11.00;;;;;;;21.93;97.27;96306.94;5035839;28;20201;-71
2021/06/19 05:12:56;;;;;;;19.38;9.88;;;;;;;21.99;98.81;96302.44;5035978;28;20681;-71
2021/06/19 05:15:25;;;;;;;16.05;9.80;;;;;;;22.03;99.11;96307.06;5035743;28;20240;-71
2021/06/19 05:17:52;;;;;;;20.13;8.98;;;;;;;22.16;97.79;96304.84;5035689;28;20720;-71
2021/06/19 05:20:19;;;;;;;13.40;8.43;;;;;;;22.26;96.88;96304.22;5036615;28;20227;-71
2021/06/19 05:22:45;;;;;;;16.30;8.70;;;;;;;22.37;95.11;96287.19;5034225;28;20201;-71
2021/06/19 05:25:13;;;;;;;21.02;9.45;;;;;;;22.46;95.41;96293.75;5035002;28;20225;-71
2021/06/19 05:27:42;;;;;;;14.02;8.98;;;;;;;22.39;92.96;96310.03;5036386;28;20294;-71
2021/06/19 05:30:10;;;;;;;17.95;9.50;;;;;;;22.25;94.60;96314.09;5036388;28;20232;-71
2021/06/19 05:32:36;;;;;;;18.08;8.40;;;;;;;22.32;95.06;96317.44;5036035;28;20232;-71
2021/06/19 05:35:04;;;;;;;14.13;8.93;;;;;;;22.36;96.20;96318.56;5035986;28;20229;-71
2021/06/19 05:37:30;;;;;;;14.75;9.20;;;;;;;22.31;94.78;96331.13;5036412;28;20248;-71
2021/06/19 05:39:57;;;;;;;17.17;9.50;;;;;;;22.46;94.45;96326.78;5036466;28;20215;-71
2021/06/19 05:42:24;;;;;;;15.60;8.73;;;;;;;22.43;95.97;96329.97;5035580;28;20212;-71
2021/06/19 05:44:51;;;;;;;18.10;9.25;;;;;;;22.52;97.09;96325.00;5036572;28;20221;-71
2021/06/19 05:47:18;;;;;;;18.48;9.38;;;;;;;22.48;94.67;96334.59;5035976;28;20216;-71
2021/06/19 05:49:44;;;;;;;21.17;9.20;;;;;;;22.55;95.17;96325.28;5035420;28;20308;-71
2021/06/19 05:52:11;;;;;;;17.80;9.38;;;;;;;22.51;97.15;96318.78;5033698;28;20218;-71
2021/06/19 05:54:37;;;;;;;13.38;9.02;;;;;;;22.53;96.70;96321.22;5035856;28;20239;-71
2021/06/19 05:57:05;;;;;;;18.95;9.10;;;;;;;22.64;98.84;96323.78;5034811;28;20216;-71
2021/06/19 05:59:31;;;;;;;13.82;9.50;;;;;;;22.80;96.39;96318.38;5032503;28;20208;-73
2021/06/19 06:02:02;;;;;;;17.15;8.75;;;;;;;22.85;95.15;96323.81;5036216;28;20208;-73
2021/06/19 06:04:29;;;;;;;17.67;10.32;;;;;;;22.84;96.47;96318.69;5035887;28;20221;-73
2021/06/19 06:06:55;;;;;;;23.67;9.25;;;;;;;22.84;95.10;96326.75;5034687;28;20213;-73
2021/06/19 06:09:22;;;;;;;19.33;10.10;;;;;;;22.95;94.85;96325.78;5036066;28;20208;-74
2021/06/19 06:11:48;;;;;;;16.65;10.02;;;;;;;23.11;95.37;96330.31;5035236;28;20335;-74
2021/06/19 06:14:15;;;;;;;16.23;9.95;;;;;;;23.15;93.85;96331.44;5034493;28;20231;-74
2021/06/19 06:16:41;;;;;;;15.13;10.32;;;;;;;23.19;92.87;96327.97;5033626;28;20196;-73
2021/06/19 06:19:09;;;;;;;17.85;9.88;;;;;;;23.20;94.40;96326.13;5036148;28;20216;-73
2021/06/19 06:21:36;;;;;;;17.88;9.57;;;;;;;23.22;93.37;96326.66;5032369;28;20251;-74
2021/06/19 06:24:02;;;;;;;17.42;9.60;;;;;;;23.34;94.33;96328.16;5035213;28;20201;-74
2021/06/19 06:26:29;;;;;;;17.35;10.30;;;;;;;23.54;95.59;96334.53;5035242;28;20202;-74
2021/06/19 06:28:55;;;;;;;15.05;9.73;;;;;;;23.66;91.64;96334.38;5034831;28;20201;-73
2021/06/19 06:31:22;;;;;;;15.80;9.77;;;;;;;23.61;91.25;96335.16;5035129;28;20231;-73
2021/06/19 06:33:49;;;;;;;16.35;10.32;;;;;;;23.46;92.41;96345.75;5036156;28;20221;-73
2021/06/19 06:36:16;;;;;;;15.50;10.02;;;;;;;23.43;93.44;96350.84;5035586;28;20233;-73
2021/06/19 06:38:43;;;;;;;17.40;9.55;;;;;;;23.58;93.39;96359.88;5038252;28;20684;-73
2021/06/19 06:41:11;;;;;;;15.65;9.13;;;;;;;23.80;92.73;96357.16;5037628;28;20205;-73
2021/06/19 06:43:37;;;;;;;16.75;9.80;;;;;;;23.99;92.07;96356.50;5036989;28;20573;-73
2021/06/19 06:46:04;;;;;;;20.27;9.55;;;;;;;24.16;89.47;96355.28;5036517;28;20263;-73
2021/06/19 06:48:30;;;;;;;16.13;10.02;;;;;;;24.15;89.07;96360.94;5034820;28;20204;-73
2021/06/19 06:50:57;;;;;;;19.40;9.85;;;;;;;24.23;88.57;96357.78;5035566;28;20206;-74
2021/06/19 06:53:24;;;;;;;19.88;8.85;;;;;;;24.30;91.20;96352.97;5038910;28;20232;-74
2021/06/19 06:55:51;;;;;;;17.35;9.18;;;;;;;24.41;91.41;96354.69;5035985;28;20225;-74
2021/06/19 06:58:17;;;;;;;17.85;9.93;;;;;;;24.52;87.93;96356.38;5032820;28;20212;-74
2021/06/19 07:00:44;;;;;;;23.70;9.68;;;;;;;24.44;88.06;96354.16;5038304;28;20201;-74
2021/06/19 07:03:10;;;;;;;15.75;9.73;;;;;;;24.39;90.51;96356.81;5038095;28;20576;-74
2021/06/19 07:05:37;;;;;;;17.58;8.73;;;;;;;24.54;91.33;96359.63;5037742;28;20608;-74
2021/06/19 07:08:03;;;;;;;20.33;9.50;;;;;;;24.49;89.38;96352.34;5035066;28;20292;-74
2021/06/19 07:10:31;;;;;;;16.50;9.10;;;;;;;24.39;88.14;96348.75;5038483;28;20881;-74
2021/06/19 07:12:58;;;;;;;17.35;9.65;;;;;;;24.44;88.26;96352.28;5038351;28;20209;-74
2021/06/19 07:15:24;;;;;;;20.17;9.88;;;;;;;24.50;87.95;96353.13;5037320;28;20229;-74
2021/06/19 07:17:51;;;;;;;15.68;8.73;;;;;;;24.58;88.52;96348.88;5037698;28;20214;-74
2021/06/19 07:20:18;;;;;;;19.95;9.23;;;;;;;24.73;89.42;96343.56;5037413;28;20665;-74
2021/06/19 07:22:45;;;;;;;17.45;9.52;;;;;;;24.79;88.29;96347.09;5038701;28;20205;-74
2021/06/19 07:25:12;;;;;;;18.58;9.65;;;;;;;24.89;85.80;96342.56;5037848;28;20229;-74
2021/06/19 07:27:41;;;;;;;19.52;9.35;;;;;;;25.01;86.86;96340.44;5037415;28;20208;-74
2021/06/19 07:30:09;;;;;;;16.13;9.38;;;;;;;25.01;87.57;96337.75;5037849;28;20209;-74
2021/06/19 07:32:37;;;;;;;19.38;9.75;;;;;;;25.16;85.53;96332.44;5038080;28;20208;-74
2021/06/19 07:35:05;;;;;;;16.73;9.30;;;;;;;25.33;84.96;96341.13;5037330;28;20225;-74
2021/06/19 07:37:32;;;;;;;16.83;8.68;;;;;;;25.46;80.88;96338.72;5037975;28;20228;-74
2021/06/19 07:39:58;;;;;;;18.95;7.95;;;;;;;25.41;85.93;96335.22;5037600;28;20208;-74
2021/06/19 07:42:25;;;;;;;16.20;7.88;;;;;;;25.24;82.50;96340.84;5037760;28;20670;-74
2021/06/19 07:44:53;;;;;;;12.23;6.82;;;;;;;25.39;76.78;96334.66;5037835;28;20217;-73
2021/06/19 07:47:19;;;;;;;14.27;7.30;;;;;;;25.44;78.26;96335.47;5036674;28;20209;-74
2021/06/19 07:49:46;;;;;;;19.40;7.53;;;;;;;25.59;75.63;96332.03;5037039;28;20197;-74
2021/06/19 07:52:12;;;;;;;11.60;7.07;;;;;;;25.55;76.48;96336.34;5037345;28;20209;-74
2021/06/19 07:54:39;;;;;;;15.50;7.35;;;;;;;25.51;75.19;96335.22;5037464;28;20773;-74
2021/06/19 07:57:06;;;;;;;17.80;7.18;;;;;;;25.54;76.29;96329.31;5037172;28;20569;-74
2021/06/19 07:59:33;;;;;;;11.50;7.95;;;;;;;25.45;77.41;96320.13;5033693;28;20314;-74
2021/06/19 08:02:01;;;;;;;15.07;7.05;;;;;;;25.71;80.13;96321.81;5037232;28;20204;-74
2021/06/19 08:04:27;;;;;;;15.20;6.75;;;;;;;25.81;73.45;96321.81;5037567;28;20603;-73
2021/06/19 08:06:54;;;;;;;13.30;6.80;;;;;;;25.82;78.11;96320.75;5037015;28;20197;-73
2021/06/19 08:09:20;;;;;;;15.27;7.30;;;;;;;25.99;74.00;96324.78;5037630;28;20679;-73
2021/06/19 08:11:47;;;;;;;14.07;6.65;;;;;;;26.07;76.26;96316.13;5035393;28;20239;-74
2021/06/19 08:14:15;;;;;;;16.50;7.38;;;;;;;26.13;74.22;96313.16;5037058;28;20221;-74
2021/06/19 08:16:46;;;;;;;19.13;7.38;;;;;;;26.27;70.83;96303.41;5037016;28;20216;-74
2021/06/19 08:19:13;;;;;;;17.48;6.05;;;;;;;26.26;69.28;96307.22;5037044;28;20213;-73
2021/06/19 08:21:40;;;;;;;15.43;6.78;;;;;;;26.44;72.02;96296.66;5034773;28;20201;-73
2021/06/19 08:24:07;;;;;;;13.07;6.50;;;;;;;26.61;72.03;96293.63;5036969;28;20663;-73
2021/06/19 08:26:36;;;;;;;18.27;6.88;;;;;;;26.66;74.45;96290.91;5036128;28;20205;-73
2021/06/19 08:29:02;;;;;;;18.13;6.22;;;;;;;26.84;72.35;96282.19;5036453;28;20201;-73
2021/06/19 08:31:29;;;;;;;19.58;6.50;;;;;;;26.91;70.82;96288.09;5036386;28;20201;-73
2021/06/19 08:33:55;;;;;;;15.10;6.20;;;;;;;26.90;69.11;96286.50;5036558;28;20221;-74
2021/06/19 08:36:23;;;;;;;18.08;6.97;;;;;;;26.95;70.07;96272.94;5036203;28;20726;-73
2021/06/19 08:38:49;;;;;;;15.25;6.63;;;;;;;27.12;72.53;96269.63;5036590;28;20209;-73
2021/06/19 08:41:18;;;;;;;14.50;6.18;;;;;;;27.08;72.98;96273.97;5036862;28;20201;-73
2021/06/19 08:43:45;;;;;;;18.08;6.20;;;;;;;27.28;66.26;96271.16;5037181;28;20200;-73
2021/06/19 08:46:13;;;;;;;19.30;6.15;;;;;;;27.03;69.13;96267.00;5036156;28;20224;-73
2021/06/19 08:48:40;;;;;;;13.25;5.90;;;;;;;27.19;71.08;96267.44;5036291;28;20692;-74
2021/06/19 08:51:07;;;;;;;13.73;5.68;;;;;;;27.34;71.31;96261.13;5036398;28;20212;-73
2021/06/19 08:53:35;;;;;;;11.70;6.32;;;;;;;27.37;68.85;96260.56;5036877;28;20231;-73
2021/06/19 08:56:01;;;;;;;13.82;5.90;;;;;;;27.37;66.17;96255.97;5034792;28;20332;-73
2021/06/19 08:58:28;;;;;;;19.08;5.82;;;;;;;27.42;71.08;96255.09;5034927;28;20212;-73
2021/06/19 09:00:54;;;;;;;17.77;6.82;;;;;;;27.45;72.23;96252.66;5036128;28;20201;-73
2021/06/19 09:03:21;;;;;;;15.88;6.00;;;;;;;27.60;68.27;96255.28;5036488;28;20213;-73
2021/06/19 09:05:49;;;;;;;17.27;6.18;;;;;;;27.56;66.93;96253.38;5035913;28;20234;-73
2021/06/19 09:08:16;;;;;;;15.55;6.05;;;;;;;27.43;66.60;96254.00;5036523;28;20201;-73
2021/06/19 09:10:44;;;;;;;19.27;6.93;;;;;;;27.51;66.21;96254.22;5036536;28;20205;-73
2021/06/19 09:13:11;;;;;;;18.70;6.18;;;;;;;27.73;69.57;96251.94;5036169;28;20216;-74
2021/06/19 09:15:42;;;;;;;17.00;6.30;;;;;;;27.48;69.63;96253.97;5035875;28;20612;-73
2021/06/19 09:18:13;;;;;;;16.30;5.93;;;;;;;27.97;64.97;96244.69;5035903;28;20714;-73
2021/06/19 09:20:47;;;;;;;14.95;5.93;;;;;;;28.16;66.48;96254.53;5034411;28;20781;-73
2021/06/19 09:23:14;;;;;;;16.33;5.13;;;;;;;28.21;65.02;96254.50;5034937;28;20212;-73
2021/06/19 09:25:41;;;;;;;18.80;5.97;;;;;;;28.21;65.19;96261.81;5034917;28;20224;-73
2021/06/19 09:28:10;;;;;;;13.75;5.57;;;;;;;28.28;65.48;96262.28;5035739;28;20216;-73
2021/06/19 09:30:38;;;;;;;16.42;5.75;;;;;;;28.33;65.80;96258.44;5035883;28;20215;-73
2021/06/19 09:33:07;;;;;;;17.35;5.95;;;;;;;28.42;64.63;96248.59;5036120;28;20209;-73
2021/06/19 09:35:36;;;;;;;19.88;6.18;;;;;;;28.46;66.80;96257.75;5035151;28;20232;-73
2021/06/19 09:38:04;;;;;;;14.27;6.07;;;;;;;28.56;65.79;96260.34;5035562;28;20205;-73
2021/06/19 09:40:33;;;;;;;16.15;5.70;;;;;;;28.64;64.93;96248.88;5035939;28;20205;-73
2021/06/19 09:43:16;;;;;;;18.55;5.97;;;;;;;28.56;64.06;96244.06;5034988;28;20201;-73
2021/06/19 09:45:47;;;;;;;15.02;5.65;;;;;;;28.72;63.02;96248.22;5034866;28;20221;-73
2021/06/19 09:48:25;;;;;;;13.95;5.57;;;;;;;28.97;63.21;96256.91;5035616;28;20756;-73
2021/06/19 09:51:15;;;;;;;15.25;5.47;;;;;;;28.91;63.61;96257.25;5035661;28;20204;-73
2021/06/19 09:53:44;;;;;;;17.17;5.95;;;;;;;28.91;64.79;96254.53;5035104;28;20213;-73
2021/06/19 09:56:12;;;;;;;18.17;5.93;;;;;;;28.97;61.67;96247.94;5035515;28;20718;-73
2021/06/19 09:58:42;;;;;;;14.07;5.50;;;;;;;28.98;65.75;96247.66;5032388;28;20201;-73
2021/06/19 10:01:10;;;;;;;17.33;5.80;;;;;;;29.04;62.84;96251.09;5034353;28;20376;-73
2021/06/19 10:03:53;;;;;;;18.17;6.18;;;;;;;29.27;62.19;96250.25;5035096;28;20209;-73
2021/06/19 10:06:20;;;;;;;12.93;5.10;;;;;;;29.05;59.56;96242.66;5035409;28;20221;-73
2021/06/19 10:08:48;;;;;;;13.13;5.72;;;;;;;29.06;64.66;96243.47;5035192;28;20585;-73
2021/06/19 10:11:15;;;;;;;15.07;5.63;;;;;;;29.32;62.18;96245.56;5033136;28;20205;-73
2021/06/19 10:13:44;;;;;;;12.07;5.45;;;;;;;29.35;58.32;96234.13;5038954;28;20201;-73
2021/06/19 10:16:13;;;;;;;16.35;5.40;;;;;;;29.58;62.62;96234.03;5037603;28;20236;-73
2021/06/19 10:18:40;;;;;;;18.63;5.68;;;;;;;29.76;58.33;96232.38;5036521;28;20672;-73
2021/06/19 10:21:08;;;;;;;13.07;5.20;;;;;;;29.94;57.12;96223.41;5036159;28;20232;-73
2021/06/19 10:23:36;;;;;;;11.38;5.75;;;;;;;29.76;58.40;96222.34;5038183;28;20737;-73
2021/06/19 10:26:02;;;;;;;13.82;5.90;;;;;;;29.47;62.15;96223.63;5037602;28;20236;-73
2021/06/19 10:28:31;;;;;;;15.90;5.70;;;;;;;29.52;62.88;96226.28;5039123;28;20212;-73
2021/06/19 10:31:00;;;;;;;15.98;6.45;;;;;;;29.61;63.80;96219.84;5039737;28;20204;-73
2021/06/19 10:33:28;;;;;;;14.00;5.65;;;;;;;29.78;58.51;96222.84;5038965;28;20197;-73
2021/06/19 10:35:56;;;;;;;23.15;5.75;;;;;;;29.73;55.98;96222.91;5037732;28;20711;-73
2021/06/19 10:38:22;;;;;;;12.82;4.97;;;;;;;29.74;56.38;96219.09;5036030;28;20201;-73
2021/06/19 10:40:53;;;;;;;12.10;5.10;;;;;;;29.87;56.27;96204.78;5039354;28;20203;-73
2021/06/19 10:43:21;;;;;;;12.68;5.20;;;;;;;29.93;58.54;96200.09;5038759;28;20679;-73
2021/06/19 10:45:48;;;;;;;11.75;4.82;;;;;;;29.96;59.95;96200.25;5038832;28;20228;-73
2021/06/19 10:48:17;;;;;;;12.23;5.22;;;;;;;29.94;59.56;96194.34;5039339;28;20206;-73
2021/06/19 10:50:46;;;;;;;14.98;5.22;;;;;;;29.93;58.69;96190.00;5038840;28;20217;-73
2021/06/19 10:53:14;;;;;;;16.02;4.80;;;;;;;30.00;55.02;96184.97;5039199;28;20211;-74
2021/06/19 10:55:57;;;;;;;15.50;4.28;;;;;;;29.89;55.59;96178.13;5037845;28;20232;-73
2021/06/19 10:58:25;;;;;;;18.17;5.25;;;;;;;29.87;58.35;96174.09;5035038;28;20246;-73
2021/06/19 11:00:53;;;;;;;13.07;4.88;;;;;;;29.99;59.03;96177.13;5038468;28;20198;-73
2021/06/19 11:03:41;;;;;;;15.20;5.28;;;;;;;30.11;55.86;96170.09;5039568;28;20205;-73
2021/06/19 11:06:24;;;;;;;15.18;5.10;;;;;;;30.40;57.22;96160.53;5037680;28;20229;-73
2021/06/19 11:09:07;;;;;;;13.68;5.13;;;;;;;30.30;57.70;96168.09;5038599;28;20706;-73
2021/06/19 11:11:54;;;;;;;16.52;5.38;;;;;;;30.34;62.47;96144.63;5039795;28;20216;-73
2021/06/19 11:14:56;;;;;;;22.77;6.65;;;;;;;30.47;55.78;96152.84;5038400;28;20231;-73
2021/06/19 11:17:50;;;;;;;17.63;5.43;;;;;;;30.36;55.47;96142.44;5035103;28;20220;-73
2021/06/19 11:20:29;;;;;;;17.45;5.30;;;;;;;30.51;54.58;96142.97;5036661;28;20603;-73
2021/06/19 11:22:58;;;;;;;9.80;5.03;;;;;;;30.63;56.51;96139.72;5036882;28;20208;-73